Tropical Cyclones
[Index]
Season 2020-2021 Tropical Cyclone 202021_10 Track Map
Season 2020-2021 Summaries: [BoM-AU]
<<- Previous TC | BoM 2020-2021 Season | Next TC ->>

click for intensity scale information  Lat/long Grid: Show Hide

 Date Labels: Show Hide

Bureau of Meteorology Tropical Cyclone Data

Name: 202021_10

19 Jan 2021 12:00 UTC to 27 Jan 2021 18:00 UTC

    date/time    lat    long    hPa   cat  kts
2021-01-19 12   13.1   106.7   1005         15          
2021-01-19 18   12.9   104.5   1004         20          
2021-01-20 00   12.5   102.6   1004         25          
2021-01-20 06   12.6   100.9   1004         30          
2021-01-20 12   12.6    99.2   1002         35          
2021-01-20 18   12.4    98.1   1000         35          
2021-01-21 00   12.3    97.8    995    1    40          
2021-01-21 06   12.6    97.3    995    1    40          
2021-01-21 12   12.7    97.4    994    1    40          
2021-01-21 18   12.9    97.6    994    1    40          
2021-01-22 00   13.1    97.5    994    1    40          
2021-01-22 06   13.2    97.4    994    1    40          
2021-01-22 12   13.3    97.5    996         35          
2021-01-22 18   13.8    97.7    996         35          
2021-01-23 00   14.2    97.5    996         35          
2021-01-23 06   14.3    97.6    996         30          
2021-01-23 12   15.0    97.7    996         30          
2021-01-23 18   15.6    97.8    996         30          
2021-01-24 00   15.8    97.5    996         30          
2021-01-24 06   16.1    97.3    996         30          
2021-01-24 12   16.5    96.8    996         30          
2021-01-24 18   16.9    96.5    998         30          
2021-01-25 00   17.2    96.1    998         30          
2021-01-25 06   17.4    95.9    998         25          
2021-01-25 12   17.7    95.7    998         25          
2021-01-25 18   18.0    95.4    998         30          
2021-01-26 00   18.4    95.1    998         35          
2021-01-26 06   19.0    94.6    998         35          
2021-01-26 12   19.3    94.2    998         35          
2021-01-26 18   19.2    93.2    998         35          
2021-01-27 00   19.2    92.1    998         35          
2021-01-27 06   19.4    91.3    998         35          
2021-01-27 12   19.4    90.4    998         35          
2021-01-27 18   19.2    89.0    998         35          
Winds are 10-min average.

Tropical cyclone tracks developed by Michael Bath using data from the Bureau of Meteorology and Google Maps.


Document: tropical_cyclone_202021_10.htm
Updated: 12 February 2021
[Australian Severe Weather index] [Copyright Notice] [Email Contacts] [Search This Site] [Privacy Policy]


Main Index Home Page Stock Weather Photos Extreme Storms Discussion Storm News and Storm Chasing Reports Tropical Cyclones / Hurricanes / Typhoons Weather Data and Links Wild Fires / Bushfires Weather Observation Techniques Weather Picture Catalogue Tornado Pictures and Reports Stock Video Footage and DVDs for sale